sensor_id;sensor_type;location;lat;lon;timestamp;temperature;humidity
6260;DHT22;3163;51.516;4.000;2022-07-30T00:02:24;21.10;99.90
6260;DHT22;3163;51.516;4.000;2022-07-30T00:04:50;21.10;99.90
6260;DHT22;3163;51.516;4.000;2022-07-30T00:07:15;21.10;99.90
6260;DHT22;3163;51.516;4.000;2022-07-30T00:09:41;21.10;99.90
6260;DHT22;3163;51.516;4.000;2022-07-30T00:12:07;21.00;99.90
6260;DHT22;3163;51.516;4.000;2022-07-30T00:14:33;21.10;99.90
6260;DHT22;3163;51.516;4.000;2022-07-30T00:17:02;21.10;99.90
6260;DHT22;3163;51.516;4.000;2022-07-30T00:19:28;21.10;99.90
6260;DHT22;3163;51.516;4.000;2022-07-30T00:21:54;21.10;99.90
6260;DHT22;3163;51.516;4.000;2022-07-30T00:24:20;21.00;99.90
6260;DHT22;3163;51.516;4.000;2022-07-30T00:26:46;21.00;99.90
6260;DHT22;3163;51.516;4.000;2022-07-30T00:29:11;21.00;99.90
6260;DHT22;3163;51.516;4.000;2022-07-30T00:31:37;21.00;99.90
6260;DHT22;3163;51.516;4.000;2022-07-30T00:34:03;21.00;99.90
6260;DHT22;3163;51.516;4.000;2022-07-30T00:36:29;21.00;99.90
6260;DHT22;3163;51.516;4.000;2022-07-30T00:38:54;21.00;99.90
6260;DHT22;3163;51.516;4.000;2022-07-30T00:41:20;20.90;99.90
6260;DHT22;3163;51.516;4.000;2022-07-30T00:43:45;21.00;99.90
6260;DHT22;3163;51.516;4.000;2022-07-30T00:46:11;20.90;99.90
6260;DHT22;3163;51.516;4.000;2022-07-30T00:48:39;21.00;99.90
6260;DHT22;3163;51.516;4.000;2022-07-30T00:51:05;21.00;99.90
6260;DHT22;3163;51.516;4.000;2022-07-30T00:53:31;20.90;99.90
6260;DHT22;3163;51.516;4.000;2022-07-30T00:55:57;20.90;99.90
6260;DHT22;3163;51.516;4.000;2022-07-30T00:58:22;20.90;99.90
6260;DHT22;3163;51.516;4.000;2022-07-30T01:00:48;20.90;99.90
6260;DHT22;3163;51.516;4.000;2022-07-30T01:03:14;20.90;99.90
6260;DHT22;3163;51.516;4.000;2022-07-30T01:05:39;21.00;99.90
6260;DHT22;3163;51.516;4.000;2022-07-30T01:08:05;20.90;99.90
6260;DHT22;3163;51.516;4.000;2022-07-30T01:10:30;20.90;99.90
6260;DHT22;3163;51.516;4.000;2022-07-30T01:12:56;20.80;99.90
6260;DHT22;3163;51.516;4.000;2022-07-30T01:15:24;20.80;99.90
6260;DHT22;3163;51.516;4.000;2022-07-30T01:17:51;20.80;99.90
6260;DHT22;3163;51.516;4.000;2022-07-30T01:20:22;20.70;99.90
6260;DHT22;3163;51.516;4.000;2022-07-30T01:23:14;20.70;99.90
6260;DHT22;3163;51.516;4.000;2022-07-30T01:28:13;20.70;99.90
6260;DHT22;3163;51.516;4.000;2022-07-30T01:30:41;20.60;99.90
6260;DHT22;3163;51.516;4.000;2022-07-30T01:33:10;20.60;99.90
6260;DHT22;3163;51.516;4.000;2022-07-30T01:35:38;20.60;99.90
6260;DHT22;3163;51.516;4.000;2022-07-30T01:38:04;20.60;99.90
6260;DHT22;3163;51.516;4.000;2022-07-30T01:40:31;20.60;99.90
6260;DHT22;3163;51.516;4.000;2022-07-30T01:42:59;20.60;99.90
6260;DHT22;3163;51.516;4.000;2022-07-30T01:45:28;20.60;99.90
6260;DHT22;3163;51.516;4.000;2022-07-30T01:47:58;20.60;99.90
6260;DHT22;3163;51.516;4.000;2022-07-30T01:50:25;20.60;99.90
6260;DHT22;3163;51.516;4.000;2022-07-30T01:52:53;20.60;99.90
6260;DHT22;3163;51.516;4.000;2022-07-30T01:55:31;20.60;99.90
6260;DHT22;3163;51.516;4.000;2022-07-30T01:57:58;20.50;99.90
6260;DHT22;3163;51.516;4.000;2022-07-30T02:00:25;20.50;99.90
6260;DHT22;3163;51.516;4.000;2022-07-30T02:02:52;20.50;99.90
6260;DHT22;3163;51.516;4.000;2022-07-30T02:05:19;20.40;99.90
6260;DHT22;3163;51.516;4.000;2022-07-30T02:07:56;20.40;99.90
6260;DHT22;3163;51.516;4.000;2022-07-30T02:10:50;20.40;99.90
6260;DHT22;3163;51.516;4.000;2022-07-30T02:13:20;20.40;99.90
6260;DHT22;3163;51.516;4.000;2022-07-30T02:16:07;20.30;99.90
6260;DHT22;3163;51.516;4.000;2022-07-30T02:18:42;20.30;99.90
6260;DHT22;3163;51.516;4.000;2022-07-30T02:21:11;20.30;99.90
6260;DHT22;3163;51.516;4.000;2022-07-30T02:23:40;20.30;99.90
6260;DHT22;3163;51.516;4.000;2022-07-30T02:26:07;20.20;99.90
6260;DHT22;3163;51.516;4.000;2022-07-30T02:28:37;20.30;99.90
6260;DHT22;3163;51.516;4.000;2022-07-30T02:31:05;20.20;99.90
6260;DHT22;3163;51.516;4.000;2022-07-30T02:33:40;20.30;99.90
6260;DHT22;3163;51.516;4.000;2022-07-30T02:36:08;20.20;99.90
6260;DHT22;3163;51.516;4.000;2022-07-30T02:38:36;20.20;99.90
6260;DHT22;3163;51.516;4.000;2022-07-30T02:41:03;20.20;99.90
6260;DHT22;3163;51.516;4.000;2022-07-30T02:43:30;20.10;99.90
6260;DHT22;3163;51.516;4.000;2022-07-30T02:45:58;20.10;99.90
6260;DHT22;3163;51.516;4.000;2022-07-30T02:48:24;20.10;99.90
6260;DHT22;3163;51.516;4.000;2022-07-30T02:50:53;20.10;99.90
6260;DHT22;3163;51.516;4.000;2022-07-30T02:53:19;20.10;99.90
6260;DHT22;3163;51.516;4.000;2022-07-30T02:55:47;20.10;99.90
6260;DHT22;3163;51.516;4.000;2022-07-30T02:58:16;20.00;99.90
6260;DHT22;3163;51.516;4.000;2022-07-30T03:00:44;20.10;99.90
6260;DHT22;3163;51.516;4.000;2022-07-30T03:03:12;20.10;99.90
6260;DHT22;3163;51.516;4.000;2022-07-30T03:05:40;20.00;99.90
6260;DHT22;3163;51.516;4.000;2022-07-30T03:08:06;20.00;99.90
6260;DHT22;3163;51.516;4.000;2022-07-30T03:10:33;20.00;99.90
6260;DHT22;3163;51.516;4.000;2022-07-30T03:13:01;20.00;99.90
6260;DHT22;3163;51.516;4.000;2022-07-30T03:15:29;20.00;99.90
6260;DHT22;3163;51.516;4.000;2022-07-30T03:17:55;20.00;99.90
6260;DHT22;3163;51.516;4.000;2022-07-30T03:20:26;20.00;99.90
6260;DHT22;3163;51.516;4.000;2022-07-30T03:22:53;19.90;99.90
6260;DHT22;3163;51.516;4.000;2022-07-30T03:25:22;19.90;99.90
6260;DHT22;3163;51.516;4.000;2022-07-30T03:27:49;19.80;99.90
6260;DHT22;3163;51.516;4.000;2022-07-30T03:30:16;19.80;99.90
6260;DHT22;3163;51.516;4.000;2022-07-30T03:32:42;19.80;99.90
6260;DHT22;3163;51.516;4.000;2022-07-30T03:35:09;19.80;99.90
6260;DHT22;3163;51.516;4.000;2022-07-30T03:37:36;19.80;99.90
6260;DHT22;3163;51.516;4.000;2022-07-30T03:40:04;19.70;99.90
6260;DHT22;3163;51.516;4.000;2022-07-30T03:42:31;19.70;99.90
6260;DHT22;3163;51.516;4.000;2022-07-30T03:44:57;19.70;99.90
6260;DHT22;3163;51.516;4.000;2022-07-30T03:47:23;19.60;99.90
6260;DHT22;3163;51.516;4.000;2022-07-30T03:49:49;19.60;99.90
6260;DHT22;3163;51.516;4.000;2022-07-30T03:52:16;19.60;99.90
6260;DHT22;3163;51.516;4.000;2022-07-30T03:54:42;19.60;99.90
6260;DHT22;3163;51.516;4.000;2022-07-30T03:57:08;19.60;99.90
6260;DHT22;3163;51.516;4.000;2022-07-30T03:59:33;19.60;99.90
6260;DHT22;3163;51.516;4.000;2022-07-30T04:02:01;19.60;99.90
6260;DHT22;3163;51.516;4.000;2022-07-30T04:04:28;19.60;99.90
6260;DHT22;3163;51.516;4.000;2022-07-30T04:06:57;19.60;99.90
6260;DHT22;3163;51.516;4.000;2022-07-30T04:09:23;19.60;99.90
6260;DHT22;3163;51.516;4.000;2022-07-30T04:11:49;19.60;99.90
6260;DHT22;3163;51.516;4.000;2022-07-30T04:14:15;19.70;99.90
6260;DHT22;3163;51.516;4.000;2022-07-30T04:16:49;19.70;99.90
6260;DHT22;3163;51.516;4.000;2022-07-30T04:19:22;19.70;99.90
6260;DHT22;3163;51.516;4.000;2022-07-30T04:21:50;19.70;99.90
6260;DHT22;3163;51.516;4.000;2022-07-30T04:24:17;19.70;99.90
6260;DHT22;3163;51.516;4.000;2022-07-30T04:26:44;19.70;99.90
6260;DHT22;3163;51.516;4.000;2022-07-30T04:29:10;19.80;99.90
6260;DHT22;3163;51.516;4.000;2022-07-30T04:31:36;19.80;99.90
6260;DHT22;3163;51.516;4.000;2022-07-30T04:34:03;19.80;99.90
6260;DHT22;3163;51.516;4.000;2022-07-30T04:36:30;19.80;99.90
6260;DHT22;3163;51.516;4.000;2022-07-30T04:38:57;19.80;99.90
6260;DHT22;3163;51.516;4.000;2022-07-30T04:41:23;19.80;99.90
6260;DHT22;3163;51.516;4.000;2022-07-30T04:43:49;19.90;99.90
6260;DHT22;3163;51.516;4.000;2022-07-30T04:46:16;20.00;99.90
6260;DHT22;3163;51.516;4.000;2022-07-30T04:48:41;20.00;99.90
6260;DHT22;3163;51.516;4.000;2022-07-30T04:51:21;20.00;99.90
6260;DHT22;3163;51.516;4.000;2022-07-30T04:53:48;20.00;99.90
6260;DHT22;3163;51.516;4.000;2022-07-30T04:56:15;20.00;99.90
6260;DHT22;3163;51.516;4.000;2022-07-30T04:58:43;20.10;99.90
6260;DHT22;3163;51.516;4.000;2022-07-30T05:01:09;20.10;99.90
6260;DHT22;3163;51.516;4.000;2022-07-30T05:03:35;20.20;99.90
6260;DHT22;3163;51.516;4.000;2022-07-30T05:06:04;20.20;99.90
6260;DHT22;3163;51.516;4.000;2022-07-30T05:08:30;20.30;99.90
6260;DHT22;3163;51.516;4.000;2022-07-30T05:10:56;20.20;99.90
6260;DHT22;3163;51.516;4.000;2022-07-30T05:13:22;20.20;99.90
6260;DHT22;3163;51.516;4.000;2022-07-30T05:15:47;20.30;99.90
6260;DHT22;3163;51.516;4.000;2022-07-30T05:18:13;20.30;99.90
6260;DHT22;3163;51.516;4.000;2022-07-30T05:20:39;20.30;99.90
6260;DHT22;3163;51.516;4.000;2022-07-30T05:23:05;20.40;99.90
6260;DHT22;3163;51.516;4.000;2022-07-30T05:25:31;20.40;99.90
6260;DHT22;3163;51.516;4.000;2022-07-30T05:27:56;20.40;99.90
6260;DHT22;3163;51.516;4.000;2022-07-30T05:30:23;20.50;99.90
6260;DHT22;3163;51.516;4.000;2022-07-30T05:32:49;20.50;99.90
6260;DHT22;3163;51.516;4.000;2022-07-30T05:35:15;20.50;99.90
6260;DHT22;3163;51.516;4.000;2022-07-30T05:37:40;20.50;99.90
6260;DHT22;3163;51.516;4.000;2022-07-30T05:40:06;20.50;99.90
6260;DHT22;3163;51.516;4.000;2022-07-30T05:42:32;20.50;99.90
6260;DHT22;3163;51.516;4.000;2022-07-30T05:44:57;20.50;99.90
6260;DHT22;3163;51.516;4.000;2022-07-30T05:47:24;20.50;99.90
6260;DHT22;3163;51.516;4.000;2022-07-30T05:49:51;20.50;99.90
6260;DHT22;3163;51.516;4.000;2022-07-30T05:52:16;20.60;99.90
6260;DHT22;3163;51.516;4.000;2022-07-30T05:54:42;20.60;99.90
6260;DHT22;3163;51.516;4.000;2022-07-30T05:57:07;20.60;99.90
6260;DHT22;3163;51.516;4.000;2022-07-30T05:59:33;20.50;99.90
6260;DHT22;3163;51.516;4.000;2022-07-30T06:01:58;20.50;99.90
6260;DHT22;3163;51.516;4.000;2022-07-30T06:04:26;20.50;99.90
6260;DHT22;3163;51.516;4.000;2022-07-30T06:06:51;20.70;99.90
6260;DHT22;3163;51.516;4.000;2022-07-30T06:09:17;20.70;99.90
6260;DHT22;3163;51.516;4.000;2022-07-30T06:11:42;20.60;99.90
6260;DHT22;3163;51.516;4.000;2022-07-30T06:14:08;20.80;99.90
6260;DHT22;3163;51.516;4.000;2022-07-30T06:16:34;20.90;99.90
6260;DHT22;3163;51.516;4.000;2022-07-30T06:18:59;20.90;99.90
6260;DHT22;3163;51.516;4.000;2022-07-30T06:21:25;21.00;99.90
6260;DHT22;3163;51.516;4.000;2022-07-30T06:23:50;21.00;99.90
6260;DHT22;3163;51.516;4.000;2022-07-30T06:26:16;21.00;99.90
6260;DHT22;3163;51.516;4.000;2022-07-30T06:28:41;21.00;99.90
6260;DHT22;3163;51.516;4.000;2022-07-30T06:31:07;21.10;99.90
6260;DHT22;3163;51.516;4.000;2022-07-30T06:33:32;21.10;99.90
6260;DHT22;3163;51.516;4.000;2022-07-30T06:35:58;21.10;99.90
6260;DHT22;3163;51.516;4.000;2022-07-30T06:38:24;21.00;99.90
6260;DHT22;3163;51.516;4.000;2022-07-30T06:40:49;21.00;99.90
6260;DHT22;3163;51.516;4.000;2022-07-30T06:43:15;21.10;99.90
6260;DHT22;3163;51.516;4.000;2022-07-30T06:45:40;21.00;99.90
6260;DHT22;3163;51.516;4.000;2022-07-30T06:48:06;21.10;99.90
6260;DHT22;3163;51.516;4.000;2022-07-30T06:50:32;21.00;99.90
6260;DHT22;3163;51.516;4.000;2022-07-30T06:52:57;20.60;99.90
6260;DHT22;3163;51.516;4.000;2022-07-30T06:55:23;20.90;99.90
6260;DHT22;3163;51.516;4.000;2022-07-30T06:57:49;21.10;99.90
6260;DHT22;3163;51.516;4.000;2022-07-30T07:00:15;21.10;99.90
6260;DHT22;3163;51.516;4.000;2022-07-30T07:02:41;21.00;99.90
6260;DHT22;3163;51.516;4.000;2022-07-30T07:05:07;21.20;99.90
6260;DHT22;3163;51.516;4.000;2022-07-30T07:07:33;21.20;99.90
6260;DHT22;3163;51.516;4.000;2022-07-30T07:09:59;21.10;99.90
6260;DHT22;3163;51.516;4.000;2022-07-30T07:12:25;21.00;99.90
6260;DHT22;3163;51.516;4.000;2022-07-30T07:14:50;21.10;99.90
6260;DHT22;3163;51.516;4.000;2022-07-30T07:17:16;21.30;99.90
6260;DHT22;3163;51.516;4.000;2022-07-30T07:19:42;21.30;99.90
6260;DHT22;3163;51.516;4.000;2022-07-30T07:22:08;21.40;99.90
6260;DHT22;3163;51.516;4.000;2022-07-30T07:24:33;21.30;99.90
6260;DHT22;3163;51.516;4.000;2022-07-30T07:26:59;21.50;99.90
6260;DHT22;3163;51.516;4.000;2022-07-30T07:29:24;21.60;99.90
6260;DHT22;3163;51.516;4.000;2022-07-30T07:31:50;21.70;99.90
6260;DHT22;3163;51.516;4.000;2022-07-30T07:34:15;21.60;99.90
6260;DHT22;3163;51.516;4.000;2022-07-30T07:36:41;21.80;99.90
6260;DHT22;3163;51.516;4.000;2022-07-30T07:39:07;21.90;99.90
6260;DHT22;3163;51.516;4.000;2022-07-30T07:41:35;22.10;99.90
6260;DHT22;3163;51.516;4.000;2022-07-30T07:44:02;22.20;99.90
6260;DHT22;3163;51.516;4.000;2022-07-30T07:46:28;22.40;99.90
6260;DHT22;3163;51.516;4.000;2022-07-30T07:48:53;22.30;99.90
6260;DHT22;3163;51.516;4.000;2022-07-30T07:51:19;22.50;99.90
6260;DHT22;3163;51.516;4.000;2022-07-30T07:53:45;22.80;99.90
6260;DHT22;3163;51.516;4.000;2022-07-30T07:56:10;23.00;99.90
6260;DHT22;3163;51.516;4.000;2022-07-30T07:58:36;22.90;99.90
6260;DHT22;3163;51.516;4.000;2022-07-30T08:01:02;21.30;99.90
6260;DHT22;3163;51.516;4.000;2022-07-30T08:03:27;20.60;99.90
6260;DHT22;3163;51.516;4.000;2022-07-30T08:05:53;20.20;99.90
6260;DHT22;3163;51.516;4.000;2022-07-30T08:08:19;20.00;99.90
6260;DHT22;3163;51.516;4.000;2022-07-30T08:10:44;20.90;99.90
6260;DHT22;3163;51.516;4.000;2022-07-30T08:13:10;20.40;99.90
6260;DHT22;3163;51.516;4.000;2022-07-30T08:15:36;20.30;99.90
6260;DHT22;3163;51.516;4.000;2022-07-30T08:18:01;20.50;99.90
6260;DHT22;3163;51.516;4.000;2022-07-30T08:20:27;20.60;99.90
6260;DHT22;3163;51.516;4.000;2022-07-30T08:22:53;20.60;99.90
6260;DHT22;3163;51.516;4.000;2022-07-30T08:25:18;20.80;99.90
6260;DHT22;3163;51.516;4.000;2022-07-30T08:27:44;21.60;99.90
6260;DHT22;3163;51.516;4.000;2022-07-30T08:30:10;22.00;99.90
6260;DHT22;3163;51.516;4.000;2022-07-30T08:32:36;22.50;99.90
6260;DHT22;3163;51.516;4.000;2022-07-30T08:35:05;22.50;99.90
6260;DHT22;3163;51.516;4.000;2022-07-30T08:37:31;22.70;99.90
6260;DHT22;3163;51.516;4.000;2022-07-30T08:39:57;22.70;99.90
6260;DHT22;3163;51.516;4.000;2022-07-30T08:42:23;22.70;99.90
6260;DHT22;3163;51.516;4.000;2022-07-30T08:44:49;22.90;99.90
6260;DHT22;3163;51.516;4.000;2022-07-30T08:47:17;22.90;99.90
6260;DHT22;3163;51.516;4.000;2022-07-30T08:49:45;23.10;99.90
6260;DHT22;3163;51.516;4.000;2022-07-30T08:52:11;23.10;99.90
6260;DHT22;3163;51.516;4.000;2022-07-30T08:54:38;23.20;99.90
6260;DHT22;3163;51.516;4.000;2022-07-30T08:57:05;23.30;99.90
6260;DHT22;3163;51.516;4.000;2022-07-30T08:59:31;23.40;99.90
6260;DHT22;3163;51.516;4.000;2022-07-30T09:01:57;23.50;99.90
6260;DHT22;3163;51.516;4.000;2022-07-30T09:04:23;23.60;99.90
6260;DHT22;3163;51.516;4.000;2022-07-30T09:06:48;23.60;99.90
6260;DHT22;3163;51.516;4.000;2022-07-30T09:09:14;23.60;99.90
6260;DHT22;3163;51.516;4.000;2022-07-30T09:11:40;23.70;99.90
6260;DHT22;3163;51.516;4.000;2022-07-30T09:14:13;23.70;99.90
6260;DHT22;3163;51.516;4.000;2022-07-30T09:16:40;23.60;99.90
6260;DHT22;3163;51.516;4.000;2022-07-30T09:19:17;23.50;99.90
6260;DHT22;3163;51.516;4.000;2022-07-30T09:21:57;23.60;99.90
6260;DHT22;3163;51.516;4.000;2022-07-30T09:24:23;23.80;99.90
6260;DHT22;3163;51.516;4.000;2022-07-30T09:27:02;23.90;99.90
6260;DHT22;3163;51.516;4.000;2022-07-30T09:29:29;23.90;99.90
6260;DHT22;3163;51.516;4.000;2022-07-30T09:32:06;24.00;99.90
6260;DHT22;3163;51.516;4.000;2022-07-30T09:34:36;24.10;99.90
6260;DHT22;3163;51.516;4.000;2022-07-30T09:37:04;24.20;99.90
6260;DHT22;3163;51.516;4.000;2022-07-30T09:39:41;24.30;99.90
6260;DHT22;3163;51.516;4.000;2022-07-30T09:44:43;24.60;99.90
6260;DHT22;3163;51.516;4.000;2022-07-30T09:47:31;24.70;99.90
6260;DHT22;3163;51.516;4.000;2022-07-30T09:50:18;24.90;99.90
6260;DHT22;3163;51.516;4.000;2022-07-30T09:52:45;24.90;99.90
6260;DHT22;3163;51.516;4.000;2022-07-30T09:55:12;24.80;99.90
6260;DHT22;3163;51.516;4.000;2022-07-30T09:57:59;24.70;99.90
6260;DHT22;3163;51.516;4.000;2022-07-30T10:00:27;24.70;99.90
6260;DHT22;3163;51.516;4.000;2022-07-30T10:02:53;24.60;99.90
6260;DHT22;3163;51.516;4.000;2022-07-30T10:05:19;24.80;99.90
6260;DHT22;3163;51.516;4.000;2022-07-30T10:10:20;24.90;99.90
6260;DHT22;3163;51.516;4.000;2022-07-30T10:12:47;24.70;99.90
6260;DHT22;3163;51.516;4.000;2022-07-30T10:15:18;24.80;99.90
6260;DHT22;3163;51.516;4.000;2022-07-30T10:17:45;24.90;99.90
6260;DHT22;3163;51.516;4.000;2022-07-30T10:20:11;24.90;99.90
6260;DHT22;3163;51.516;4.000;2022-07-30T10:22:37;24.90;99.90
6260;DHT22;3163;51.516;4.000;2022-07-30T10:25:04;25.00;99.90
6260;DHT22;3163;51.516;4.000;2022-07-30T10:27:30;25.10;99.90
6260;DHT22;3163;51.516;4.000;2022-07-30T10:29:57;25.10;99.90
6260;DHT22;3163;51.516;4.000;2022-07-30T10:32:25;25.10;99.90
6260;DHT22;3163;51.516;4.000;2022-07-30T10:34:51;24.90;99.90
6260;DHT22;3163;51.516;4.000;2022-07-30T10:37:18;24.90;99.90
6260;DHT22;3163;51.516;4.000;2022-07-30T10:39:54;24.90;99.90
6260;DHT22;3163;51.516;4.000;2022-07-30T10:42:52;25.10;99.90
6260;DHT22;3163;51.516;4.000;2022-07-30T10:47:58;25.10;99.90
6260;DHT22;3163;51.516;4.000;2022-07-30T10:50:24;25.10;99.90
6260;DHT22;3163;51.516;4.000;2022-07-30T10:52:59;25.10;99.90
6260;DHT22;3163;51.516;4.000;2022-07-30T10:55:35;25.10;99.90
6260;DHT22;3163;51.516;4.000;2022-07-30T10:58:12;25.20;99.90
6260;DHT22;3163;51.516;4.000;2022-07-30T11:03:21;25.10;99.90
6260;DHT22;3163;51.516;4.000;2022-07-30T11:06:34;25.30;99.90
6260;DHT22;3163;51.516;4.000;2022-07-30T11:08:42;25.40;99.90
6260;DHT22;3163;51.516;4.000;2022-07-30T11:13:56;25.70;99.90
6260;DHT22;3163;51.516;4.000;2022-07-30T11:19:03;25.90;99.90
6260;DHT22;3163;51.516;4.000;2022-07-30T11:21:29;26.00;99.90
6260;DHT22;3163;51.516;4.000;2022-07-30T11:23:57;26.10;99.90
6260;DHT22;3163;51.516;4.000;2022-07-30T11:29:04;26.20;99.90
6260;DHT22;3163;51.516;4.000;2022-07-30T11:31:35;26.40;99.90
6260;DHT22;3163;51.516;4.000;2022-07-30T11:37:08;26.80;99.90
6260;DHT22;3163;51.516;4.000;2022-07-30T11:42:31;26.80;99.90
6260;DHT22;3163;51.516;4.000;2022-07-30T11:45:18;26.80;99.90
6260;DHT22;3163;51.516;4.000;2022-07-30T11:47:46;27.10;99.90
6260;DHT22;3163;51.516;4.000;2022-07-30T11:50:25;26.90;99.90
6260;DHT22;3163;51.516;4.000;2022-07-30T11:52:57;26.90;99.90
6260;DHT22;3163;51.516;4.000;2022-07-30T11:57:53;27.00;99.90
6260;DHT22;3163;51.516;4.000;2022-07-30T12:00:20;27.00;99.90
6260;DHT22;3163;51.516;4.000;2022-07-30T12:02:46;27.20;99.90
6260;DHT22;3163;51.516;4.000;2022-07-30T12:05:13;27.40;99.90
6260;DHT22;3163;51.516;4.000;2022-07-30T12:07:38;27.40;99.90
6260;DHT22;3163;51.516;4.000;2022-07-30T12:10:15;27.60;99.90
6260;DHT22;3163;51.516;4.000;2022-07-30T12:12:41;27.80;99.90
6260;DHT22;3163;51.516;4.000;2022-07-30T12:15:08;28.00;99.90
6260;DHT22;3163;51.516;4.000;2022-07-30T12:17:41;28.00;99.90
6260;DHT22;3163;51.516;4.000;2022-07-30T12:20:15;28.20;99.90
6260;DHT22;3163;51.516;4.000;2022-07-30T12:22:41;28.20;99.90
6260;DHT22;3163;51.516;4.000;2022-07-30T12:25:11;28.00;99.90
6260;DHT22;3163;51.516;4.000;2022-07-30T12:27:37;27.80;99.90
6260;DHT22;3163;51.516;4.000;2022-07-30T12:30:06;27.80;99.90
6260;DHT22;3163;51.516;4.000;2022-07-30T12:32:34;27.80;99.90
6260;DHT22;3163;51.516;4.000;2022-07-30T12:35:00;27.80;99.90
6260;DHT22;3163;51.516;4.000;2022-07-30T12:37:26;28.00;99.90
6260;DHT22;3163;51.516;4.000;2022-07-30T12:40:24;28.00;99.90
6260;DHT22;3163;51.516;4.000;2022-07-30T12:42:52;27.80;99.90
6260;DHT22;3163;51.516;4.000;2022-07-30T12:45:31;27.80;99.90
6260;DHT22;3163;51.516;4.000;2022-07-30T12:48:00;27.40;99.90
6260;DHT22;3163;51.516;4.000;2022-07-30T12:50:26;27.80;99.90
6260;DHT22;3163;51.516;4.000;2022-07-30T12:52:54;28.10;99.90
6260;DHT22;3163;51.516;4.000;2022-07-30T12:55:34;28.00;99.90
6260;DHT22;3163;51.516;4.000;2022-07-30T13:00:30;27.70;99.90
6260;DHT22;3163;51.516;4.000;2022-07-30T13:02:56;27.70;99.90
6260;DHT22;3163;51.516;4.000;2022-07-30T13:05:42;27.90;99.90
6260;DHT22;3163;51.516;4.000;2022-07-30T13:08:08;27.90;99.90
6260;DHT22;3163;51.516;4.000;2022-07-30T13:10:33;27.90;99.90
6260;DHT22;3163;51.516;4.000;2022-07-30T13:12:59;27.90;99.90
6260;DHT22;3163;51.516;4.000;2022-07-30T13:15:24;27.80;99.90
6260;DHT22;3163;51.516;4.000;2022-07-30T13:17:50;27.80;99.90
6260;DHT22;3163;51.516;4.000;2022-07-30T13:20:16;27.70;99.90
6260;DHT22;3163;51.516;4.000;2022-07-30T13:22:43;27.60;99.90
6260;DHT22;3163;51.516;4.000;2022-07-30T13:25:09;27.60;99.90
6260;DHT22;3163;51.516;4.000;2022-07-30T13:27:35;27.60;99.90
6260;DHT22;3163;51.516;4.000;2022-07-30T13:30:03;27.60;99.90
6260;DHT22;3163;51.516;4.000;2022-07-30T13:32:29;27.50;99.90
6260;DHT22;3163;51.516;4.000;2022-07-30T13:34:58;27.40;99.90
6260;DHT22;3163;51.516;4.000;2022-07-30T13:37:23;27.50;99.90
6260;DHT22;3163;51.516;4.000;2022-07-30T13:39:49;27.40;99.90
6260;DHT22;3163;51.516;4.000;2022-07-30T13:42:14;27.00;99.90
6260;DHT22;3163;51.516;4.000;2022-07-30T13:44:40;27.20;99.90
6260;DHT22;3163;51.516;4.000;2022-07-30T13:47:05;27.10;99.90
6260;DHT22;3163;51.516;4.000;2022-07-30T13:49:34;27.10;99.90
6260;DHT22;3163;51.516;4.000;2022-07-30T13:52:03;27.00;99.90
6260;DHT22;3163;51.516;4.000;2022-07-30T13:54:28;27.20;99.90
6260;DHT22;3163;51.516;4.000;2022-07-30T13:56:54;27.10;99.90
6260;DHT22;3163;51.516;4.000;2022-07-30T13:59:20;27.10;99.90
6260;DHT22;3163;51.516;4.000;2022-07-30T14:01:46;26.30;99.90
6260;DHT22;3163;51.516;4.000;2022-07-30T14:04:11;25.70;99.90
6260;DHT22;3163;51.516;4.000;2022-07-30T14:06:37;25.10;99.90
6260;DHT22;3163;51.516;4.000;2022-07-30T14:09:03;25.90;99.90
6260;DHT22;3163;51.516;4.000;2022-07-30T14:11:30;26.30;99.90
6260;DHT22;3163;51.516;4.000;2022-07-30T14:13:55;26.40;99.90
6260;DHT22;3163;51.516;4.000;2022-07-30T14:16:21;26.60;99.90
6260;DHT22;3163;51.516;4.000;2022-07-30T14:18:46;26.80;99.90
6260;DHT22;3163;51.516;4.000;2022-07-30T14:21:12;26.90;99.90
6260;DHT22;3163;51.516;4.000;2022-07-30T14:23:37;27.00;99.90
6260;DHT22;3163;51.516;4.000;2022-07-30T14:26:03;26.90;99.90
6260;DHT22;3163;51.516;4.000;2022-07-30T14:28:29;27.00;99.90
6260;DHT22;3163;51.516;4.000;2022-07-30T14:30:54;27.00;99.90
6260;DHT22;3163;51.516;4.000;2022-07-30T14:33:20;26.90;99.90
6260;DHT22;3163;51.516;4.000;2022-07-30T14:35:45;27.00;99.90
6260;DHT22;3163;51.516;4.000;2022-07-30T14:38:11;26.90;99.90
6260;DHT22;3163;51.516;4.000;2022-07-30T14:40:37;26.90;99.90
6260;DHT22;3163;51.516;4.000;2022-07-30T14:43:02;27.00;99.90
6260;DHT22;3163;51.516;4.000;2022-07-30T14:45:28;27.00;99.90
6260;DHT22;3163;51.516;4.000;2022-07-30T14:47:54;26.80;99.90
6260;DHT22;3163;51.516;4.000;2022-07-30T14:50:19;26.90;99.90
6260;DHT22;3163;51.516;4.000;2022-07-30T14:52:47;26.80;99.90
6260;DHT22;3163;51.516;4.000;2022-07-30T14:55:13;26.80;99.90
6260;DHT22;3163;51.516;4.000;2022-07-30T14:57:39;26.80;99.90
6260;DHT22;3163;51.516;4.000;2022-07-30T15:00:05;26.80;99.90
6260;DHT22;3163;51.516;4.000;2022-07-30T15:02:38;26.90;99.90
6260;DHT22;3163;51.516;4.000;2022-07-30T15:05:05;26.30;99.90
6260;DHT22;3163;51.516;4.000;2022-07-30T15:07:31;26.00;99.90
6260;DHT22;3163;51.516;4.000;2022-07-30T15:09:56;26.50;99.90
6260;DHT22;3163;51.516;4.000;2022-07-30T15:12:25;26.70;99.90
6260;DHT22;3163;51.516;4.000;2022-07-30T15:14:51;26.80;99.90
6260;DHT22;3163;51.516;4.000;2022-07-30T15:17:16;26.80;99.90
6260;DHT22;3163;51.516;4.000;2022-07-30T15:19:42;26.80;99.90
6260;DHT22;3163;51.516;4.000;2022-07-30T15:22:07;26.80;99.90
6260;DHT22;3163;51.516;4.000;2022-07-30T15:24:33;26.90;99.90
6260;DHT22;3163;51.516;4.000;2022-07-30T15:26:59;26.80;99.90
6260;DHT22;3163;51.516;4.000;2022-07-30T15:29:24;26.90;99.90
6260;DHT22;3163;51.516;4.000;2022-07-30T15:31:53;26.80;99.90
6260;DHT22;3163;51.516;4.000;2022-07-30T15:34:19;26.90;99.90
6260;DHT22;3163;51.516;4.000;2022-07-30T15:36:44;26.90;99.90
6260;DHT22;3163;51.516;4.000;2022-07-30T15:39:10;27.00;99.90
6260;DHT22;3163;51.516;4.000;2022-07-30T15:41:36;27.10;99.90
6260;DHT22;3163;51.516;4.000;2022-07-30T15:44:09;27.00;99.90
6260;DHT22;3163;51.516;4.000;2022-07-30T15:46:34;27.00;99.90
6260;DHT22;3163;51.516;4.000;2022-07-30T15:49:00;27.00;99.90
6260;DHT22;3163;51.516;4.000;2022-07-30T15:51:26;27.00;99.90
6260;DHT22;3163;51.516;4.000;2022-07-30T15:53:52;26.90;99.90
6260;DHT22;3163;51.516;4.000;2022-07-30T15:56:17;27.00;99.90
6260;DHT22;3163;51.516;4.000;2022-07-30T15:58:43;27.00;99.90
6260;DHT22;3163;51.516;4.000;2022-07-30T16:01:09;27.00;99.90
6260;DHT22;3163;51.516;4.000;2022-07-30T16:03:34;27.00;99.90
6260;DHT22;3163;51.516;4.000;2022-07-30T16:06:00;27.00;99.90
6260;DHT22;3163;51.516;4.000;2022-07-30T16:08:25;27.00;99.90
6260;DHT22;3163;51.516;4.000;2022-07-30T16:10:51;26.80;99.90
6260;DHT22;3163;51.516;4.000;2022-07-30T16:13:17;26.80;99.90
6260;DHT22;3163;51.516;4.000;2022-07-30T16:15:43;26.90;99.90
6260;DHT22;3163;51.516;4.000;2022-07-30T16:18:08;27.00;99.90
6260;DHT22;3163;51.516;4.000;2022-07-30T16:20:34;26.80;99.90
6260;DHT22;3163;51.516;4.000;2022-07-30T16:23:00;27.00;99.90
6260;DHT22;3163;51.516;4.000;2022-07-30T16:25:25;27.00;99.90
6260;DHT22;3163;51.516;4.000;2022-07-30T16:27:51;26.90;99.90
6260;DHT22;3163;51.516;4.000;2022-07-30T16:30:17;26.90;99.90
6260;DHT22;3163;51.516;4.000;2022-07-30T16:32:42;27.00;99.90
6260;DHT22;3163;51.516;4.000;2022-07-30T16:35:08;26.90;99.90
6260;DHT22;3163;51.516;4.000;2022-07-30T16:37:36;26.90;99.90